createdAt,value
2018-07-21T00:00:46.737Z,3.30
2018-07-21T00:01:46.740Z,3.50
2018-07-21T00:02:46.777Z,3.30
2018-07-21T00:03:46.802Z,3.80
2018-07-21T00:04:46.819Z,3.30
2018-07-21T00:05:46.799Z,3.60
2018-07-21T00:06:46.857Z,4.50
2018-07-21T00:07:46.852Z,3.70
2018-07-21T00:08:46.879Z,4.10
2018-07-21T00:09:46.904Z,3.30
2018-07-21T00:10:46.864Z,3.30
2018-07-21T00:11:46.940Z,3.40
2018-07-21T00:12:46.907Z,3.40
2018-07-21T00:13:46.911Z,3.80
2018-07-21T00:14:46.991Z,3.90
2018-07-21T00:15:46.956Z,5.40
2018-07-21T00:16:46.966Z,3.60
2018-07-21T00:17:46.958Z,3.80
2018-07-21T00:18:46.963Z,3.30
2018-07-21T00:19:47.061Z,3.30
2018-07-21T00:20:47.003Z,3.20
2018-07-21T00:21:47.017Z,3.40
2018-07-21T00:22:47.086Z,5.60
2018-07-21T00:23:47.108Z,4.00
2018-07-21T00:24:47.105Z,3.30
2018-07-21T00:25:47.103Z,3.20
2018-07-21T00:26:47.110Z,3.40
2018-07-21T00:27:47.132Z,3.20
2018-07-21T00:28:47.169Z,3.20
2018-07-21T00:29:47.181Z,3.20
2018-07-21T00:30:47.157Z,3.00
2018-07-21T00:31:47.154Z,3.80
2018-07-21T00:32:47.172Z,3.20
2018-07-21T00:33:47.234Z,5.40
2018-07-21T00:34:47.228Z,4.70
2018-07-21T00:35:47.283Z,4.10
2018-07-21T00:36:47.240Z,3.50
2018-07-21T00:37:47.221Z,5.00
2018-07-21T00:38:47.252Z,3.10
2018-07-21T00:39:47.313Z,3.40
2018-07-21T00:40:47.334Z,3.50
2018-07-21T00:41:47.321Z,3.80
2018-07-21T00:42:47.299Z,3.50
2018-07-21T00:43:47.321Z,3.60
2018-07-21T00:44:47.338Z,3.10
2018-07-21T00:45:47.436Z,3.30
2018-07-21T00:46:47.393Z,3.30
2018-07-21T00:47:47.375Z,3.40
2018-07-21T00:48:47.372Z,3.80
2018-07-21T00:49:47.381Z,3.30
2018-07-21T00:50:47.454Z,3.30
2018-07-21T00:51:47.482Z,3.20
2018-07-21T00:52:47.493Z,3.20
2018-07-21T00:53:47.470Z,3.40
2018-07-21T00:54:47.503Z,3.30
2018-07-21T00:55:47.524Z,3.10
2018-07-21T00:56:47.524Z,3.10
2018-07-21T00:57:47.563Z,3.20
2018-07-21T00:58:47.520Z,3.10
2018-07-21T00:59:47.557Z,3.10
2018-07-21T01:00:47.554Z,3.20
2018-07-21T01:01:47.646Z,3.50
2018-07-21T01:02:47.572Z,3.60
2018-07-21T01:03:47.625Z,3.10
2018-07-21T01:04:47.569Z,2.80
2018-07-21T01:05:47.589Z,3.20
2018-07-21T01:06:47.671Z,3.30
2018-07-21T01:07:47.693Z,3.20
2018-07-21T01:08:47.684Z,3.30
2018-07-21T01:09:47.653Z,3.20
2018-07-21T01:10:47.696Z,3.40
2018-07-21T01:11:47.699Z,3.40
2018-07-21T01:12:47.715Z,3.30
2018-07-21T01:13:47.764Z,3.40
2018-07-21T01:14:47.733Z,3.50
2018-07-21T01:15:47.750Z,3.80
2018-07-21T01:16:47.757Z,3.50
2018-07-21T01:17:47.788Z,3.10
2018-07-21T01:18:47.815Z,3.00
2018-07-21T01:19:47.794Z,3.10
2018-07-21T01:20:47.819Z,2.90
2018-07-21T01:21:47.851Z,3.70
2018-07-21T01:22:47.874Z,3.40
2018-07-21T01:23:47.862Z,3.80
2018-07-21T01:24:47.862Z,3.20
2018-07-21T01:25:47.860Z,3.50
2018-07-21T01:26:47.898Z,3.00
2018-07-21T01:27:47.916Z,3.10
2018-07-21T01:28:47.936Z,3.00
2018-07-21T01:29:47.939Z,2.90
2018-07-21T01:30:47.949Z,3.40
2018-07-21T01:31:47.976Z,3.50
2018-07-21T01:32:48.033Z,2.90
2018-07-21T01:33:48.036Z,3.20
2018-07-21T01:34:48.004Z,3.10
2018-07-21T01:35:48.013Z,2.80
2018-07-21T01:36:48.008Z,2.90
2018-07-21T01:37:48.022Z,4.10
2018-07-21T01:38:48.088Z,3.40
2018-07-21T01:39:48.086Z,3.20
2018-07-21T01:40:48.100Z,2.90
2018-07-21T01:41:48.171Z,3.20
2018-07-21T01:42:48.120Z,3.30
2018-07-21T01:43:48.110Z,3.00
2018-07-21T01:44:48.118Z,3.20
2018-07-21T01:45:48.200Z,3.80
2018-07-21T01:46:48.159Z,4.00
2018-07-21T01:47:48.170Z,3.80
2018-07-21T01:48:48.273Z,3.50
2018-07-21T01:49:48.171Z,3.10
2018-07-21T01:50:48.299Z,2.90
2018-07-21T01:51:48.213Z,4.00
2018-07-21T01:52:48.241Z,3.60
2018-07-21T01:53:48.227Z,3.40
2018-07-21T01:54:48.225Z,3.30
2018-07-21T01:55:48.377Z,3.60
2018-07-21T01:56:48.311Z,3.50
2018-07-21T01:57:48.299Z,4.20
2018-07-21T01:58:48.313Z,4.90
2018-07-21T01:59:48.309Z,3.70
2018-07-21T02:00:48.390Z,3.60
2018-07-21T02:01:48.386Z,3.90
2018-07-21T02:02:48.363Z,5.00
2018-07-21T02:03:48.390Z,3.90
2018-07-21T02:04:48.374Z,4.50
2018-07-21T02:05:48.462Z,3.50
2018-07-21T02:06:48.484Z,3.40
2018-07-21T02:07:48.405Z,4.30
2018-07-21T02:08:48.440Z,3.90
2018-07-21T02:09:48.485Z,3.50
2018-07-21T02:10:48.477Z,3.20
2018-07-21T02:11:48.523Z,3.50
2018-07-21T02:12:48.479Z,3.60
2018-07-21T02:13:48.493Z,3.40
2018-07-21T02:14:48.518Z,3.50
2018-07-21T02:15:48.554Z,3.20
2018-07-21T02:16:48.583Z,3.50
2018-07-21T02:17:48.595Z,4.00
2018-07-21T02:18:48.537Z,3.60
2018-07-21T02:19:48.601Z,3.50
2018-07-21T02:20:48.585Z,4.00
2018-07-21T02:21:48.614Z,4.30
2018-07-21T02:22:48.669Z,3.50
2018-07-21T02:23:48.666Z,3.80
2018-07-21T02:24:48.646Z,3.50
2018-07-21T02:25:48.659Z,4.30
2018-07-21T02:26:48.660Z,4.60
2018-07-21T02:27:48.737Z,4.00
2018-07-21T02:28:48.760Z,4.10
2018-07-21T02:29:48.733Z,4.20
2018-07-21T02:30:48.770Z,4.50
2018-07-21T02:31:48.743Z,3.50
2018-07-21T02:32:48.756Z,3.90
2018-07-21T02:33:48.791Z,3.60
2018-07-21T02:34:48.799Z,3.20
2018-07-21T02:35:48.799Z,3.40
2018-07-21T02:36:48.771Z,3.70
2018-07-21T02:37:48.852Z,3.50
2018-07-21T02:38:48.817Z,3.40
2018-07-21T02:39:48.875Z,3.50
2018-07-21T02:40:48.841Z,3.50
2018-07-21T02:41:48.937Z,3.00
2018-07-21T02:42:48.874Z,2.90
2018-07-21T02:43:48.911Z,3.40
2018-07-21T02:44:48.934Z,3.40
2018-07-21T02:45:48.934Z,3.50
2018-07-21T02:46:48.970Z,3.70
2018-07-21T02:47:49.019Z,5.10
2018-07-21T02:48:48.995Z,4.70
2018-07-21T02:49:48.954Z,5.20
2018-07-21T02:50:49.040Z,4.50
2018-07-21T02:51:49.017Z,4.50
2018-07-21T02:52:49.010Z,4.90
2018-07-21T02:53:49.038Z,4.30
2018-07-21T02:54:49.097Z,3.40
2018-07-21T02:55:49.141Z,3.20
2018-07-21T02:56:49.092Z,3.90
2018-07-21T02:57:49.139Z,3.50
2018-07-21T02:58:49.115Z,3.40
2018-07-21T02:59:49.103Z,3.30
2018-07-21T03:00:49.115Z,3.30
2018-07-21T03:01:49.131Z,3.10
2018-07-21T03:02:49.190Z,3.20
2018-07-21T03:03:49.154Z,4.40
2018-07-21T03:04:49.185Z,3.50
2018-07-21T03:05:49.217Z,3.50
2018-07-21T03:06:49.346Z,3.60
2018-07-21T03:07:49.199Z,3.30
2018-07-21T03:08:49.244Z,3.50
2018-07-21T03:09:49.453Z,3.30
2018-07-21T03:10:49.243Z,3.50
2018-07-21T03:11:52.588Z,3.30
2018-07-21T03:12:49.403Z,4.20
2018-07-21T03:13:49.284Z,3.40
2018-07-21T03:14:49.277Z,3.60
2018-07-21T03:15:49.341Z,3.80
2018-07-21T03:16:49.333Z,3.30
2018-07-21T03:17:49.403Z,3.50
2018-07-21T03:18:49.348Z,3.80
2018-07-21T03:19:49.373Z,3.40
2018-07-21T03:20:49.372Z,3.70
2018-07-21T03:21:49.377Z,3.50
2018-07-21T03:22:49.400Z,3.30
2018-07-21T03:23:49.427Z,4.00
2018-07-21T03:24:49.470Z,3.40
2018-07-21T03:25:49.438Z,4.80
2018-07-21T03:26:49.462Z,3.50
2018-07-21T03:27:49.890Z,4.60
2018-07-21T03:28:49.488Z,4.00
2018-07-21T03:29:49.501Z,4.40
2018-07-21T03:30:49.537Z,3.60
2018-07-21T03:31:49.553Z,3.70
2018-07-21T03:32:49.617Z,3.70
2018-07-21T03:33:49.606Z,3.50
2018-07-21T03:34:49.593Z,4.10
2018-07-21T03:35:49.787Z,3.60
2018-07-21T03:36:49.634Z,3.50
2018-07-21T03:37:49.616Z,3.50
2018-07-21T03:38:49.693Z,3.40
2018-07-21T03:39:49.757Z,3.50
2018-07-21T03:40:49.760Z,3.90
2018-07-21T03:41:49.675Z,3.50
2018-07-21T03:42:49.793Z,3.80
2018-07-21T03:43:49.840Z,4.00
2018-07-21T03:44:49.723Z,3.60
2018-07-21T03:45:49.840Z,3.80
2018-07-21T03:46:49.726Z,3.70
2018-07-21T03:47:49.740Z,4.00
2018-07-21T03:48:49.735Z,3.30
2018-07-21T03:49:49.771Z,3.70
2018-07-21T03:50:49.766Z,3.60
2018-07-21T03:51:49.811Z,3.30
2018-07-21T03:52:49.842Z,3.70
2018-07-21T03:53:49.833Z,3.20
2018-07-21T03:54:49.819Z,3.50
2018-07-21T03:55:49.850Z,3.70
2018-07-21T03:56:49.882Z,4.00
2018-07-21T03:57:49.973Z,4.20
2018-07-21T03:58:49.883Z,4.00
2018-07-21T03:59:49.877Z,3.80
2018-07-21T04:00:49.918Z,3.30
2018-07-21T04:01:49.949Z,3.70
2018-07-21T04:02:49.928Z,3.80
2018-07-21T04:03:50.002Z,4.00
2018-07-21T04:04:49.956Z,3.60
2018-07-21T04:05:49.948Z,3.70
2018-07-21T04:06:50.002Z,3.50
2018-07-21T04:07:50.000Z,3.60
2018-07-21T04:08:50.182Z,3.60
2018-07-21T04:09:50.023Z,3.60
2018-07-21T04:10:50.025Z,3.40
2018-07-21T04:11:50.082Z,4.20
2018-07-21T04:12:50.134Z,3.30
2018-07-21T04:13:50.103Z,3.10
2018-07-21T04:14:50.202Z,3.00
2018-07-21T04:15:50.223Z,3.20
2018-07-21T04:16:50.172Z,3.20
2018-07-21T04:17:50.128Z,3.30
2018-07-21T04:18:50.130Z,3.20
2018-07-21T04:19:50.231Z,3.50
2018-07-21T04:20:50.169Z,3.20
2018-07-21T04:21:50.236Z,3.60
2018-07-21T04:22:50.340Z,3.40
2018-07-21T04:23:50.204Z,3.00
2018-07-21T04:24:50.267Z,3.50
2018-07-21T04:25:50.269Z,3.50
2018-07-21T04:26:50.336Z,3.20
2018-07-21T04:27:50.273Z,3.10
2018-07-21T04:28:50.292Z,3.70
2018-07-21T04:29:50.307Z,4.50
2018-07-21T04:30:50.361Z,3.30
2018-07-21T04:31:50.346Z,4.60
2018-07-21T04:32:50.336Z,3.30
2018-07-21T04:33:50.419Z,3.50
2018-07-21T04:34:50.439Z,4.10
2018-07-21T04:35:50.539Z,4.80
2018-07-21T04:36:50.543Z,3.60
2018-07-21T04:37:50.469Z,4.60
2018-07-21T04:38:50.493Z,3.40
2018-07-21T04:39:50.446Z,4.10
2018-07-21T04:40:50.474Z,3.40
2018-07-21T04:41:50.617Z,3.50
2018-07-21T04:42:50.593Z,3.60
2018-07-21T04:43:50.730Z,3.50
2018-07-21T04:44:50.546Z,3.50
2018-07-21T04:45:50.546Z,3.70
2018-07-21T04:46:50.553Z,3.90
2018-07-21T04:47:50.531Z,3.50
2018-07-21T04:48:50.536Z,3.40
2018-07-21T04:49:50.658Z,3.70
2018-07-21T04:50:50.671Z,3.60
2018-07-21T04:51:50.640Z,3.70
2018-07-21T04:52:50.647Z,3.40
2018-07-21T04:53:50.713Z,3.80
2018-07-21T04:54:50.672Z,4.40
2018-07-21T04:55:50.694Z,4.00
2018-07-21T04:56:50.693Z,4.60
2018-07-21T04:57:50.775Z,4.30
2018-07-21T04:58:50.716Z,3.50
2018-07-21T04:59:50.706Z,3.30
2018-07-21T05:00:50.792Z,3.20
2018-07-21T05:01:50.740Z,3.20
2018-07-21T05:02:50.741Z,3.20
2018-07-21T05:03:50.854Z,3.30
2018-07-21T05:04:50.779Z,2.70
2018-07-21T05:05:50.788Z,3.20
2018-07-21T05:06:50.808Z,3.20
2018-07-21T05:07:50.868Z,3.50
2018-07-21T05:08:50.927Z,3.20
2018-07-21T05:09:50.971Z,3.20
2018-07-21T05:10:50.882Z,2.90
2018-07-21T05:11:50.918Z,3.10
2018-07-21T05:12:50.939Z,3.20
2018-07-21T05:13:50.929Z,3.00
2018-07-21T05:14:50.965Z,3.50
2018-07-21T05:15:50.924Z,2.80
2018-07-21T05:16:50.955Z,2.90
2018-07-21T05:17:50.969Z,3.00
2018-07-21T05:18:50.968Z,2.90
2018-07-21T05:19:50.960Z,2.70
2018-07-21T05:20:51.079Z,3.40
2018-07-21T05:21:51.013Z,3.00
2018-07-21T05:22:51.032Z,4.10
2018-07-21T05:23:51.121Z,2.60
2018-07-21T05:24:51.076Z,3.40
2018-07-21T05:25:51.180Z,2.60
2018-07-21T05:26:51.096Z,2.60
2018-07-21T05:27:51.092Z,2.70
2018-07-21T05:28:51.193Z,2.60
2018-07-21T05:29:51.193Z,2.50
2018-07-21T05:30:51.165Z,2.60
2018-07-21T05:31:51.149Z,3.50
2018-07-21T05:32:51.184Z,2.40
2018-07-21T05:33:51.196Z,2.70
2018-07-21T05:34:51.213Z,2.60
2018-07-21T05:35:51.184Z,2.70
2018-07-21T05:36:51.265Z,3.10
2018-07-21T05:37:51.237Z,2.60
2018-07-21T05:38:51.271Z,2.40
2018-07-21T05:39:51.285Z,2.40
2018-07-21T05:40:51.300Z,3.50
2018-07-21T05:41:51.302Z,3.50
2018-07-21T05:42:51.313Z,2.80
2018-07-21T05:43:51.322Z,2.70
2018-07-21T05:44:51.357Z,4.00
2018-07-21T05:45:51.416Z,2.60
2018-07-21T05:46:51.385Z,3.30
2018-07-21T05:47:51.443Z,5.20
2018-07-21T05:48:51.392Z,3.10
2018-07-21T05:49:51.418Z,2.80
2018-07-21T05:50:51.484Z,2.50
2018-07-21T05:51:51.445Z,3.50
2018-07-21T05:52:51.498Z,2.60
2018-07-21T05:53:51.483Z,2.80
2018-07-21T05:54:51.490Z,3.10
2018-07-21T05:55:51.533Z,7.40
2018-07-21T05:56:51.535Z,3.50
2018-07-21T05:57:51.561Z,2.90
2018-07-21T05:58:51.616Z,3.00
2018-07-21T05:59:51.580Z,2.50
2018-07-21T06:00:51.581Z,2.90
2018-07-21T06:01:51.613Z,2.50
2018-07-21T06:02:52.699Z,4.40
2018-07-21T06:03:52.466Z,2.90
2018-07-21T06:04:52.268Z,3.70
2018-07-21T06:05:51.801Z,2.70
2018-07-21T06:06:51.686Z,3.70
2018-07-21T06:07:51.722Z,3.60
2018-07-21T06:08:51.832Z,3.60
2018-07-21T06:09:51.798Z,2.70
2018-07-21T06:10:51.800Z,3.20
2018-07-21T06:11:51.789Z,3.70
2018-07-21T06:12:51.781Z,3.70
2018-07-21T06:13:51.839Z,2.70
2018-07-21T06:14:51.809Z,2.70
2018-07-21T06:15:51.921Z,4.50
2018-07-21T06:16:51.980Z,3.20
2018-07-21T06:17:51.872Z,2.50
2018-07-21T06:18:51.922Z,4.60
2018-07-21T06:19:51.929Z,3.10
2018-07-21T06:20:51.966Z,2.60
2018-07-21T06:21:51.950Z,3.10
2018-07-21T06:22:51.926Z,3.20
2018-07-21T06:23:52.033Z,3.30
2018-07-21T06:24:52.090Z,5.30
2018-07-21T06:25:52.021Z,2.50
2018-07-21T06:26:52.083Z,2.60
2018-07-21T06:27:52.041Z,2.30
2018-07-21T06:28:52.047Z,2.50
2018-07-21T06:29:52.044Z,2.60
2018-07-21T06:30:52.127Z,2.20
2018-07-21T06:31:52.148Z,3.40
2018-07-21T06:32:52.077Z,2.80
2018-07-21T06:33:52.221Z,3.10
2018-07-21T06:34:52.113Z,2.60
2018-07-21T06:35:52.172Z,3.90
2018-07-21T06:36:52.241Z,2.40
2018-07-21T06:37:52.186Z,3.20
2018-07-21T06:38:52.261Z,2.90
2018-07-21T06:39:52.183Z,4.90
2018-07-21T06:40:52.285Z,4.60
2018-07-21T06:41:52.246Z,2.40
2018-07-21T06:42:52.343Z,4.00
2018-07-21T06:43:52.277Z,2.80
2018-07-21T06:44:52.290Z,3.10
2018-07-21T06:45:52.340Z,2.60
2018-07-21T06:46:52.412Z,2.50
2018-07-21T06:47:52.348Z,7.20
2018-07-21T06:48:52.351Z,3.70
2018-07-21T06:49:52.336Z,2.60
2018-07-21T06:50:52.457Z,2.70
2018-07-21T06:51:52.378Z,3.00
2018-07-21T06:52:52.488Z,3.20
2018-07-21T06:53:52.432Z,2.70
2018-07-21T06:54:52.457Z,3.00
2018-07-21T06:55:52.413Z,2.70
2018-07-21T06:56:52.605Z,2.60
2018-07-21T06:57:52.462Z,3.20
2018-07-21T06:58:52.574Z,2.80
2018-07-21T06:59:52.484Z,5.30
2018-07-21T07:00:52.579Z,2.90
2018-07-21T07:01:52.610Z,2.70
2018-07-21T07:02:52.527Z,4.30
2018-07-21T07:03:52.789Z,2.80
2018-07-21T07:04:52.618Z,4.80
2018-07-21T07:05:52.584Z,5.10
2018-07-21T07:06:52.576Z,3.10
2018-07-21T07:07:52.648Z,4.00
2018-07-21T07:08:52.588Z,2.80
2018-07-21T07:09:52.737Z,3.40
2018-07-21T07:10:52.721Z,2.90
2018-07-21T07:11:52.662Z,3.00
2018-07-21T07:12:52.665Z,2.80
2018-07-21T07:13:52.677Z,2.80
2018-07-21T07:14:52.722Z,2.90
2018-07-21T07:15:52.744Z,3.10
2018-07-21T07:16:52.753Z,4.40
2018-07-21T07:17:52.838Z,3.20
2018-07-21T07:18:52.754Z,3.30
2018-07-21T07:19:52.792Z,3.00
2018-07-21T07:20:52.831Z,2.70
2018-07-21T07:21:52.867Z,2.70
2018-07-21T07:22:52.828Z,2.70
2018-07-21T07:23:52.900Z,2.70
2018-07-21T07:24:52.854Z,2.60
2018-07-21T07:25:52.852Z,2.90
2018-07-21T07:26:52.900Z,3.30
2018-07-21T07:27:52.915Z,2.70
2018-07-21T07:28:52.988Z,3.00
2018-07-21T07:29:53.022Z,3.30
2018-07-21T07:30:52.953Z,3.10
2018-07-21T07:31:53.182Z,2.60
2018-07-21T07:32:52.997Z,4.10
2018-07-21T07:33:52.993Z,4.40
2018-07-21T07:34:53.086Z,4.80
2018-07-21T07:35:53.012Z,7.90
2018-07-21T07:36:53.069Z,4.40
2018-07-21T07:37:53.057Z,3.10
2018-07-21T07:38:53.098Z,3.30
2018-07-21T07:39:53.116Z,2.70
2018-07-21T07:40:53.107Z,3.70
2018-07-21T07:41:53.093Z,3.00
2018-07-21T07:42:53.121Z,3.00
2018-07-21T07:43:53.117Z,4.10
2018-07-21T07:44:53.150Z,5.70
2018-07-21T07:45:53.223Z,3.50
2018-07-21T07:46:53.179Z,3.20
2018-07-21T07:47:53.206Z,4.10
2018-07-21T07:48:53.204Z,2.90
2018-07-21T07:49:53.253Z,3.30
2018-07-21T07:50:53.292Z,3.10
2018-07-21T07:51:53.331Z,2.70
2018-07-21T07:52:53.237Z,2.80
2018-07-21T07:53:53.384Z,8.20
2018-07-21T07:54:53.322Z,6.30
2018-07-21T07:55:53.443Z,3.20
2018-07-21T07:56:53.430Z,5.90
2018-07-21T07:57:53.531Z,6.80
2018-07-21T07:58:54.126Z,4.90
2018-07-21T07:59:53.765Z,3.00
2018-07-21T08:00:53.614Z,3.40
2018-07-21T08:01:53.471Z,3.20
2018-07-21T08:02:53.407Z,3.40
2018-07-21T08:03:53.463Z,2.90
2018-07-21T08:04:53.438Z,2.80
2018-07-21T08:05:53.675Z,3.10
2018-07-21T08:06:53.574Z,2.90
2018-07-21T08:07:53.488Z,2.80
2018-07-21T08:08:53.539Z,3.10
2018-07-21T08:09:53.520Z,3.40
2018-07-21T08:10:53.577Z,3.70
2018-07-21T08:11:53.552Z,3.20
2018-07-21T08:12:53.638Z,3.20
2018-07-21T08:13:53.580Z,3.40
2018-07-21T08:14:53.701Z,3.70
2018-07-21T08:15:53.595Z,2.90
2018-07-21T08:16:53.642Z,3.20
2018-07-21T08:17:53.598Z,3.50
2018-07-21T08:18:53.636Z,3.70
2018-07-21T08:19:53.657Z,4.10
2018-07-21T08:20:53.674Z,3.70
2018-07-21T08:21:53.767Z,3.20
2018-07-21T08:22:53.671Z,3.70
2018-07-21T08:23:53.714Z,3.20
2018-07-21T08:24:53.738Z,3.50
2018-07-21T08:25:53.807Z,3.20
2018-07-21T08:26:53.785Z,4.10
2018-07-21T08:27:53.790Z,4.30
2018-07-21T08:28:53.850Z,3.20
2018-07-21T08:29:53.882Z,3.30
2018-07-21T08:30:53.813Z,4.00
2018-07-21T08:31:53.824Z,4.00
2018-07-21T08:32:53.825Z,3.20
2018-07-21T08:33:53.852Z,3.50
2018-07-21T08:34:53.883Z,3.20
2018-07-21T08:35:53.888Z,3.50
2018-07-21T08:36:54.021Z,3.30
2018-07-21T08:37:53.941Z,3.90
2018-07-21T08:38:53.995Z,3.40
2018-07-21T08:39:53.969Z,3.20
2018-07-21T08:40:54.209Z,3.00
2018-07-21T08:41:57.143Z,3.40
2018-07-21T08:42:53.987Z,3.40
2018-07-21T08:43:54.027Z,3.50
2018-07-21T08:44:54.064Z,3.70
2018-07-21T08:45:54.043Z,3.10
2018-07-21T08:46:54.092Z,3.40
2018-07-21T08:47:54.019Z,3.20
2018-07-21T08:48:54.111Z,3.50
2018-07-21T08:49:54.130Z,3.80
2018-07-21T08:50:54.198Z,3.90
2018-07-21T08:51:54.099Z,4.30
2018-07-21T08:52:54.124Z,3.80
2018-07-21T08:53:54.166Z,4.10
2018-07-21T08:54:54.168Z,3.60
2018-07-21T08:55:54.195Z,4.00
2018-07-21T08:56:54.197Z,3.90
2018-07-21T08:57:54.171Z,3.60
2018-07-21T08:58:54.194Z,4.00
2018-07-21T08:59:54.216Z,5.90
2018-07-21T09:00:54.284Z,3.90
2018-07-21T09:01:54.267Z,3.90
2018-07-21T09:02:54.289Z,3.30
2018-07-21T09:03:54.263Z,3.40
2018-07-21T09:04:54.529Z,3.80
2018-07-21T09:05:54.367Z,4.40
2018-07-21T09:06:54.399Z,4.10
2018-07-21T09:07:54.409Z,3.60
2018-07-21T09:08:54.380Z,3.30
2018-07-21T09:09:54.364Z,3.80
2018-07-21T09:10:54.413Z,3.60
2018-07-21T09:11:54.427Z,3.60
2018-07-21T09:12:54.436Z,3.50
2018-07-21T09:13:54.473Z,3.80
2018-07-21T09:14:54.509Z,3.60
2018-07-21T09:15:54.572Z,3.70
2018-07-21T09:16:54.480Z,3.60
2018-07-21T09:17:54.498Z,3.40
2018-07-21T09:18:54.671Z,3.70
2018-07-21T09:19:54.614Z,3.60
2018-07-21T09:20:54.653Z,3.60
2018-07-21T09:21:54.562Z,4.90
2018-07-21T09:22:54.591Z,4.00
2018-07-21T09:23:54.562Z,5.20
2018-07-21T09:24:54.635Z,4.10
2018-07-21T09:25:54.606Z,4.00
2018-07-21T09:26:54.667Z,6.40
2018-07-21T09:27:54.616Z,4.00
2018-07-21T09:28:54.684Z,3.80
2018-07-21T09:29:54.769Z,3.90
2018-07-21T09:30:54.794Z,3.60
2018-07-21T09:31:54.802Z,4.40
2018-07-21T09:32:54.736Z,4.20
2018-07-21T09:33:54.721Z,4.70
2018-07-21T09:34:54.733Z,5.40
2018-07-21T09:35:54.734Z,4.00
2018-07-21T09:36:54.827Z,4.00
2018-07-21T09:37:54.807Z,4.30
2018-07-21T09:38:56.651Z,4.30
2018-07-21T09:39:54.959Z,3.90
2018-07-21T09:40:54.841Z,4.00
2018-07-21T09:41:54.889Z,4.10
2018-07-21T09:42:54.860Z,4.00
2018-07-21T09:43:54.999Z,4.30
2018-07-21T09:44:54.938Z,4.50
2018-07-21T09:45:55.021Z,4.10
2018-07-21T09:46:55.033Z,4.20
2018-07-21T09:47:54.953Z,4.40
2018-07-21T09:48:55.197Z,3.80
2018-07-21T09:49:55.087Z,3.90
2018-07-21T09:50:54.994Z,4.00
2018-07-21T09:51:55.006Z,4.20
2018-07-21T09:52:54.994Z,4.30
2018-07-21T09:53:55.130Z,4.00
2018-07-21T09:54:55.105Z,4.00
2018-07-21T09:55:55.491Z,3.80
2018-07-21T09:56:55.196Z,4.20
2018-07-21T09:57:55.178Z,4.20
2018-07-21T09:58:55.075Z,4.20
2018-07-21T09:59:55.148Z,4.30
2018-07-21T10:00:55.135Z,4.90
2018-07-21T10:01:55.193Z,4.20
2018-07-21T10:02:55.137Z,5.00
2018-07-21T10:03:55.186Z,3.90
2018-07-21T10:04:55.211Z,6.80
2018-07-21T10:05:55.198Z,4.50
2018-07-21T10:06:55.234Z,5.20
2018-07-21T10:07:55.205Z,4.80
2018-07-21T10:08:55.255Z,4.40
2018-07-21T10:09:55.287Z,5.20
2018-07-21T10:10:55.276Z,4.80
2018-07-21T10:11:55.263Z,5.00
2018-07-21T10:12:55.288Z,4.10
2018-07-21T10:13:55.316Z,4.70
2018-07-21T10:14:55.363Z,4.10
2018-07-21T10:15:55.377Z,4.00
2018-07-21T10:16:55.391Z,4.10
2018-07-21T10:17:55.356Z,4.70
2018-07-21T10:18:55.396Z,4.00
2018-07-21T10:19:55.398Z,4.70
2018-07-21T10:20:55.429Z,4.90
2018-07-21T10:21:55.647Z,4.40
2018-07-21T10:22:55.449Z,4.50
2018-07-21T10:23:55.522Z,4.50
2018-07-21T10:24:55.688Z,4.00
2018-07-21T10:25:55.528Z,4.50
2018-07-21T10:26:55.512Z,4.50
2018-07-21T10:27:55.593Z,5.40
2018-07-21T10:28:55.559Z,4.30
2018-07-21T10:29:55.568Z,4.40
2018-07-21T10:30:55.597Z,4.30
2018-07-21T10:31:55.720Z,4.60
2018-07-21T10:32:55.630Z,4.40
2018-07-21T10:33:55.801Z,4.20
2018-07-21T10:34:55.697Z,4.20
2018-07-21T10:35:55.821Z,4.30
2018-07-21T10:36:55.689Z,4.30
2018-07-21T10:37:55.695Z,5.00
2018-07-21T10:38:55.726Z,4.30
2018-07-21T10:39:55.804Z,4.00
2018-07-21T10:40:55.772Z,4.00
2018-07-21T10:41:55.769Z,4.40
2018-07-21T10:42:55.752Z,4.50
2018-07-21T10:43:55.810Z,4.50
2018-07-21T10:44:55.827Z,4.10
2018-07-21T10:45:55.841Z,4.30
2018-07-21T10:46:55.934Z,4.40
2018-07-21T10:47:55.857Z,4.60
2018-07-21T10:48:55.957Z,4.50
2018-07-21T10:49:55.896Z,4.50
2018-07-21T10:50:55.903Z,4.50
2018-07-21T10:51:55.976Z,4.60
2018-07-21T10:52:55.994Z,4.30
2018-07-21T10:53:55.924Z,4.90
2018-07-21T10:54:56.124Z,4.80
2018-07-21T10:55:56.219Z,6.20
2018-07-21T10:56:56.017Z,5.10
2018-07-21T10:57:56.016Z,5.10
2018-07-21T10:58:56.065Z,5.80
2018-07-21T10:59:56.045Z,5.80
2018-07-21T11:00:56.027Z,5.50
2018-07-21T11:01:56.418Z,6.80
2018-07-21T11:02:56.326Z,16.00
2018-07-21T11:03:56.135Z,9.90
2018-07-21T11:04:56.086Z,4.20
2018-07-21T11:05:56.143Z,4.40
2018-07-21T11:06:56.103Z,4.60
2018-07-21T11:07:56.485Z,4.80
2018-07-21T11:08:56.121Z,4.80
2018-07-21T11:09:56.151Z,4.40
2018-07-21T11:10:56.246Z,4.90
2018-07-21T11:11:56.198Z,4.80
2018-07-21T11:12:56.284Z,5.10
2018-07-21T11:13:56.293Z,5.20
2018-07-21T11:14:56.503Z,5.00
2018-07-21T11:15:56.305Z,4.80
2018-07-21T11:16:56.363Z,5.10
2018-07-21T11:17:56.392Z,5.20
2018-07-21T11:18:56.309Z,4.80
2018-07-21T11:19:56.300Z,5.10
2018-07-21T11:20:56.329Z,5.80
2018-07-21T11:21:56.440Z,4.70
2018-07-21T11:22:56.359Z,4.70
2018-07-21T11:23:56.376Z,4.70
2018-07-21T11:24:56.389Z,5.00
2018-07-21T11:25:56.419Z,4.70
2018-07-21T11:26:56.446Z,4.80
2018-07-21T11:27:56.480Z,4.80
2018-07-21T11:28:56.486Z,4.80
2018-07-21T11:29:56.485Z,5.00
2018-07-21T11:30:56.493Z,4.70
2018-07-21T11:31:56.639Z,5.30
2018-07-21T11:32:56.575Z,5.90
2018-07-21T11:33:56.539Z,4.90
2018-07-21T11:34:56.566Z,4.70
2018-07-21T11:35:56.770Z,4.80
2018-07-21T11:36:56.628Z,4.60
2018-07-21T11:37:56.648Z,5.10
2018-07-21T11:38:56.688Z,5.10
2018-07-21T11:39:56.628Z,4.70
2018-07-21T11:40:56.698Z,5.80
2018-07-21T11:41:56.801Z,4.50
2018-07-21T11:42:56.723Z,4.90
2018-07-21T11:43:56.732Z,5.40
2018-07-21T11:44:56.768Z,4.80
2018-07-21T11:45:56.743Z,5.00
2018-07-21T11:46:56.755Z,5.00
2018-07-21T11:47:56.783Z,5.00
2018-07-21T11:48:56.819Z,4.80
2018-07-21T11:49:56.943Z,4.70
2018-07-21T11:50:56.826Z,4.40
2018-07-21T11:51:56.912Z,4.30
2018-07-21T11:52:56.853Z,4.70
2018-07-21T11:53:56.901Z,4.80
2018-07-21T11:54:56.898Z,5.30
2018-07-21T11:55:56.941Z,5.50
2018-07-21T11:56:56.884Z,5.30
2018-07-21T11:57:56.936Z,5.00
2018-07-21T11:58:56.982Z,5.10
2018-07-21T11:59:56.942Z,4.90
2018-07-21T12:00:57.059Z,5.10
2018-07-21T12:01:57.031Z,4.90
2018-07-21T12:02:57.028Z,4.90
2018-07-21T12:03:57.018Z,4.90
2018-07-21T12:04:57.006Z,4.90
2018-07-21T12:05:57.091Z,4.80
2018-07-21T12:06:57.200Z,4.80
2018-07-21T12:07:57.085Z,6.60
2018-07-21T12:08:57.168Z,4.90
2018-07-21T12:09:57.120Z,4.90
2018-07-21T12:10:57.151Z,5.30
2018-07-21T12:11:57.217Z,4.90
2018-07-21T12:12:57.191Z,5.40
2018-07-21T12:13:57.189Z,5.00
2018-07-21T12:14:57.200Z,5.30
2018-07-21T12:15:57.188Z,5.70
2018-07-21T12:16:57.246Z,5.30
2018-07-21T12:17:57.227Z,5.10
2018-07-21T12:18:57.265Z,4.90
2018-07-21T12:19:57.263Z,5.30
2018-07-21T12:20:57.374Z,5.00
2018-07-21T12:21:57.304Z,4.90
2018-07-21T12:22:57.319Z,5.10
2018-07-21T12:23:57.316Z,5.10
2018-07-21T12:24:57.400Z,4.80
2018-07-21T12:25:57.351Z,5.00
2018-07-21T12:26:57.341Z,4.90
2018-07-21T12:27:57.419Z,4.80
2018-07-21T12:28:57.409Z,4.60
2018-07-21T12:29:57.448Z,5.70
2018-07-21T12:30:57.533Z,4.70
2018-07-21T12:31:57.556Z,4.90
2018-07-21T12:32:58.681Z,5.30
2018-07-21T12:33:57.548Z,5.00
2018-07-21T12:34:57.671Z,5.00
2018-07-21T12:35:57.573Z,5.30
2018-07-21T12:36:57.508Z,5.90
2018-07-21T12:37:57.530Z,6.10
2018-07-21T12:38:57.620Z,5.50
2018-07-21T12:39:57.708Z,5.70
2018-07-21T12:40:57.640Z,6.00
2018-07-21T12:41:57.707Z,6.10
2018-07-21T12:42:57.639Z,5.30
2018-07-21T12:43:57.672Z,5.00
2018-07-21T12:44:58.005Z,5.00
2018-07-21T12:45:57.684Z,5.20
2018-07-21T12:46:57.720Z,4.80
2018-07-21T12:47:57.791Z,4.80
2018-07-21T12:48:57.752Z,5.80
2018-07-21T12:49:57.756Z,7.70
2018-07-21T12:50:57.770Z,6.60
2018-07-21T12:51:57.770Z,5.70
2018-07-21T12:52:57.828Z,7.10
2018-07-21T12:53:57.875Z,8.20
2018-07-21T12:54:57.857Z,5.70
2018-07-21T12:55:57.971Z,5.00
2018-07-21T12:56:57.894Z,5.10
2018-07-21T12:57:57.944Z,5.10
2018-07-21T12:58:57.949Z,4.90
2018-07-21T12:59:57.924Z,5.10
2018-07-21T13:00:57.930Z,4.40
2018-07-21T13:01:58.227Z,5.50
2018-07-21T13:02:57.998Z,5.10
2018-07-21T13:03:58.022Z,4.80
2018-07-21T13:04:58.005Z,5.40
2018-07-21T13:05:57.955Z,5.10
2018-07-21T13:06:57.991Z,5.40
2018-07-21T13:07:58.320Z,5.60
2018-07-21T13:08:58.068Z,5.30
2018-07-21T13:09:58.097Z,5.50
2018-07-21T13:10:58.087Z,5.20
2018-07-21T13:11:58.098Z,5.00
2018-07-21T13:12:58.079Z,5.20
2018-07-21T13:13:58.140Z,4.80
2018-07-21T13:14:58.120Z,4.90
2018-07-21T13:15:58.173Z,5.30
2018-07-21T13:16:58.148Z,5.70
2018-07-21T13:17:58.182Z,5.60
2018-07-21T13:18:58.254Z,5.30